KDNN/DNN METAR and TAF weather

Enter ICAO airport designator
Station Type Date Time Source
KDNN METAR 2019/04/26 03:55 UTC NOAA

KDNN 260355Z AUTO 00000KT 10SM BKN042 16/15 A2983 RMK AO2


Station Type Date Time Source
KDNN Decoded METAR 2019/04/26 03:55 UTC NOAA

Dalton, Dalton Municipal Airport, GA, United States (KDNN) 34-43-18N 084-52-09W
Apr 25, 2019 - 11:55 PM EDT / 2019.04.26 0355 UTC
Wind: Calm:0
Visibility: 10 mile(s):0
Sky conditions: mostly cloudy
Temperature: 60 F (16 C)
Dew Point: 59 F (15 C)
Relative Humidity: 93%
Pressure (altimeter): 29.83 in. Hg (1010 hPa)
ob: KDNN 260355Z AUTO 00000KT 10SM BKN042 16/15 A2983 RMK AO2
cycle: 4

Station Type Date Time Source
KDNN TAF UTC NOAA

Error!

Example: see airport list